Time;durP1;ratioP1;P1;durP2;ratioP2;P2;SDS_P1;SDS_P2;PMS_P1;PMS_P2;Temp;Humidity;BMP_temperature;BMP_pressure;BME280_temperature;BME280_humidity;BME280_pressure;Samples;Min_cycle;Max_cycle;Signal;HPM_P1;HPM_P2
2022/05/25 00:00:18;;;;;;;5.55;4.97;;;;;;;;;;5052450;28;20724;-87
2022/05/25 00:02:45;;;;;;;4.88;4.47;;;;;;;;;;5052257;28;20433;-87
2022/05/25 00:05:13;;;;;;;5.22;4.70;;;9.50;99.90;;;;;;5052426;28;20889;-87
2022/05/25 00:07:38;;;;;;;5.65;4.68;;;9.50;99.90;;;;;;5070244;28;20374;-87
2022/05/25 00:10:05;;;;;;;6.95;4.88;;;9.40;99.90;;;;;;5052737;28;20736;-87
2022/05/25 00:12:32;;;;;;;5.10;4.60;;;9.40;99.90;;;;;;5039150;28;20388;-87
2022/05/25 00:14:58;;;;;;;5.63;4.93;;;9.30;99.90;;;;;;5030715;28;20426;-87
2022/05/25 00:17:23;;;;;;;5.03;4.37;;;9.30;99.90;;;;;;5032583;28;20438;-87
2022/05/25 00:20:01;;;;;;;5.23;4.60;;;9.40;99.90;;;;;;5027423;28;20425;-87
2022/05/25 00:22:39;;;;;;;5.43;4.78;;;9.40;99.90;;;;;;5040011;28;20740;-87
2022/05/25 00:25:05;;;;;;;5.07;4.60;;;9.30;99.90;;;;;;5052188;28;20405;-87
2022/05/25 00:27:31;;;;;;;6.03;4.40;;;9.30;99.90;;;;;;5052097;28;20378;-87
2022/05/25 00:29:56;;;;;;;6.05;4.60;;;9.40;99.90;;;;;;5031158;28;20384;-87
2022/05/25 00:32:22;;;;;;;5.23;4.73;;;9.30;99.90;;;;;;5012505;28;20914;-87
2022/05/25 00:34:48;;;;;;;5.22;4.50;;;9.30;99.90;;;;;;5022578;28;20404;-87
2022/05/25 00:37:14;;;;;;;6.72;5.00;;;9.30;99.90;;;;;;5023425;28;20414;-86
2022/05/25 00:39:40;;;;;;;6.18;4.75;;;9.30;99.90;;;;;;5032363;28;20762;-85
2022/05/25 00:42:06;;;;;;;5.30;4.80;;;9.30;99.90;;;;;;5020852;28;20381;-87
2022/05/25 00:44:32;;;;;;;5.10;4.63;;;9.40;99.90;;;;;;5024562;28;20395;-87
2022/05/25 00:46:58;;;;;;;5.03;4.63;;;9.30;99.90;;;;;;5052222;28;20755;-86
2022/05/25 00:49:28;;;;;;;5.10;4.60;;;9.30;99.90;;;;;;5045759;28;20376;-87
2022/05/25 00:52:01;;;;;;;6.47;4.73;;;9.40;99.90;;;;;;5052388;28;20394;-87
2022/05/25 00:54:31;;;;;;;6.30;5.70;;;9.30;99.90;;;;;;5054205;28;20400;-87
2022/05/25 00:57:01;;;;;;;5.63;5.18;;;9.40;99.90;;;;;;5036221;28;20399;-87
2022/05/25 00:59:33;;;;;;;5.57;5.07;;;9.40;99.90;;;;;;5054207;28;20380;-87
2022/05/25 01:01:59;;;;;;;5.88;5.28;;;9.40;99.90;;;;;;5045957;28;20444;-87
2022/05/25 01:04:26;;;;;;;7.20;5.80;;;9.30;99.90;;;;;;5055689;28;20899;-87
2022/05/25 01:07:21;;;;;;;6.03;5.33;;;9.20;99.90;;;;;;5056028;28;20378;-86
2022/05/25 01:09:59;;;;;;;6.20;5.68;;;9.10;99.90;;;;;;5055895;28;20401;-86
2022/05/25 01:12:30;;;;;;;6.32;5.80;;;9.10;99.90;;;;;;5056173;28;20385;-86
2022/05/25 01:15:34;;;;;;;6.68;6.03;;;9.00;99.90;;;;;;5056155;28;20753;-87
2022/05/25 01:18:26;;;;;;;6.10;5.55;;;9.00;99.90;;;;;;5040587;28;20427;-87
2022/05/25 01:21:12;;;;;;;6.10;5.50;;;9.00;99.90;;;;;;5035695;28;20382;-87
2022/05/25 01:23:55;;;;;;;6.40;5.80;;;9.00;99.90;;;;;;5074230;28;20390;-86
2022/05/25 01:26:40;;;;;;;6.15;5.65;;;8.90;99.90;;;;;;5055951;28;20404;-86
2022/05/25 01:29:22;;;;;;;7.15;6.30;;;8.90;99.90;;;;;;5056046;28;20382;-87
2022/05/25 01:31:59;;;;;;;6.68;5.88;;;8.90;99.90;;;;;;5056218;28;20489;-86
2022/05/25 01:35:04;;;;;;;6.53;5.90;;;8.80;99.90;;;;;;5056790;28;20374;-86
2022/05/25 01:37:49;;;;;;;6.43;5.80;;;8.90;99.90;;;;;;5055908;28;20484;-86
2022/05/25 01:40:23;;;;;;;7.53;6.20;;;8.80;99.90;;;;;;5036743;28;20406;-86
2022/05/25 01:43:02;;;;;;;6.88;5.90;;;8.80;99.90;;;;;;5055156;28;20380;-86
2022/05/25 01:45:31;;;;;;;7.50;5.75;;;8.80;99.90;;;;;;5024211;28;20418;-87
2022/05/25 01:48:02;;;;;;;5.97;5.38;;;8.70;99.90;;;;;;5016851;28;20475;-86
2022/05/25 01:50:40;;;;;;;7.25;5.78;;;8.70;99.90;;;;;;5017251;28;20381;-86
2022/05/25 01:53:11;;;;;;;6.40;5.80;;;8.70;99.90;;;;;;5029843;28;20404;-87
2022/05/25 01:55:51;;;;;;;6.55;5.95;;;8.70;99.90;;;;;;5032929;28;20405;-86
2022/05/25 01:58:19;;;;;;;7.40;6.05;;;8.70;99.90;;;;;;5016086;28;20417;-86
2022/05/25 02:00:56;;;;;;;6.50;5.88;;;8.70;99.90;;;;;;5022021;28;20429;-86
2022/05/25 02:07:29;;;;;;;;;;;;;;;;;;;;;
2022/05/25 02:10:28;;;;;;;7.53;6.40;;;8.90;99.90;;;;;;4994642;28;20390;-86
2022/05/25 02:13:38;;;;;;;6.25;5.72;;;9.00;99.90;;;;;;5022165;28;20393;-86
2022/05/25 02:16:22;;;;;;;6.65;6.05;;;9.10;99.90;;;;;;5025286;28;20492;-85
2022/05/25 02:18:56;;;;;;;7.35;5.95;;;9.10;99.90;;;;;;5039749;28;20413;-85
2022/05/25 02:21:43;;;;;;;5.93;5.45;;;9.10;99.90;;;;;;5049621;28;20384;-86
2022/05/25 02:24:27;;;;;;;6.60;5.95;;;9.10;99.90;;;;;;5034835;28;20384;-85
2022/05/25 02:27:09;;;;;;;5.93;5.32;;;9.00;99.90;;;;;;5034227;28;20392;-86
2022/05/25 02:29:42;;;;;;;6.47;5.88;;;9.00;99.90;;;;;;5039257;28;20401;-85
2022/05/25 02:32:17;;;;;;;6.13;5.60;;;8.90;99.90;;;;;;5014502;28;20397;-86
2022/05/25 02:34:49;;;;;;;6.03;5.50;;;8.90;99.90;;;;;;5014246;28;20984;-87
2022/05/25 02:37:16;;;;;;;6.40;5.80;;;8.90;99.90;;;;;;5015356;28;20409;-86
2022/05/25 02:39:43;;;;;;;9.40;5.75;;;8.90;99.90;;;;;;5014248;28;20463;-85
2022/05/25 02:42:16;;;;;;;25.27;7.82;;;8.80;99.90;;;;;;5013698;28;20401;-86
2022/05/25 02:44:44;;;;;;;9.50;6.07;;;8.80;99.90;;;;;;5029277;28;21023;-85
2022/05/25 02:47:26;;;;;;;17.00;6.60;;;8.80;99.90;;;;;;5034345;28;20883;-85
2022/05/25 02:50:08;;;;;;;18.52;7.10;;;8.80;99.90;;;;;;5007561;28;20427;-87
2022/05/25 02:52:36;;;;;;;18.07;6.90;;;8.70;99.90;;;;;;5032405;28;20918;-86
2022/05/25 02:55:03;;;;;;;13.27;7.20;;;8.70;99.90;;;;;;5033367;28;20428;-86
2022/05/25 02:57:31;;;;;;;7.60;6.20;;;8.70;99.90;;;;;;5022834;28;20404;-86
2022/05/25 02:59:57;;;;;;;8.07;6.68;;;8.70;99.90;;;;;;5015346;28;20385;-86
2022/05/25 03:02:22;;;;;;;6.73;6.03;;;8.80;99.90;;;;;;5029735;28;20513;-86
2022/05/25 03:04:48;;;;;;;7.10;6.40;;;8.90;99.90;;;;;;5023578;28;20385;-86
2022/05/25 03:07:14;;;;;;;10.85;6.53;;;8.90;99.90;;;;;;5015905;28;20750;-86
2022/05/25 03:09:40;;;;;;;7.72;6.63;;;8.90;99.90;;;;;;5027353;28;20450;-87
2022/05/25 03:12:08;;;;;;;6.95;6.20;;;8.90;99.90;;;;;;5053681;28;20418;-87
2022/05/25 03:14:37;;;;;;;10.40;6.30;;;8.90;99.90;;;;;;5014171;28;20438;-86
2022/05/25 03:17:12;;;;;;;7.03;6.33;;;9.00;99.90;;;;;;5014501;28;20436;-86
2022/05/25 03:19:39;;;;;;;6.82;5.95;;;8.90;99.90;;;;;;5015535;28;20495;-87
2022/05/25 03:22:06;;;;;;;8.13;6.15;;;9.00;99.90;;;;;;5015275;28;20389;-86
2022/05/25 03:24:32;;;;;;;6.13;5.53;;;9.10;99.90;;;;;;5017169;28;20455;-86
2022/05/25 03:26:58;;;;;;;6.50;5.93;;;9.10;99.90;;;;;;5063393;28;20450;-87
2022/05/25 03:29:26;;;;;;;20.08;6.70;;;9.20;99.90;;;;;;5053885;28;20937;-86
2022/05/25 03:31:52;;;;;;;11.80;6.25;;;9.30;99.90;;;;;;5035180;28;20388;-86
2022/05/25 03:34:18;;;;;;;6.60;6.00;;;9.40;99.90;;;;;;5030875;28;20933;-86
2022/05/25 03:36:45;;;;;;;7.32;6.03;;;9.40;99.90;;;;;;5020308;28;20389;-86
2022/05/25 03:39:10;;;;;;;6.40;5.80;;;9.40;99.90;;;;;;5031833;28;20480;-87
2022/05/25 03:41:36;;;;;;;6.30;5.80;;;9.50;99.90;;;;;;5013818;28;20563;-87
2022/05/25 03:44:02;;;;;;;6.40;5.80;;;9.60;99.90;;;;;;5013900;28;20755;-86
2022/05/25 03:46:29;;;;;;;6.78;5.60;;;9.70;99.90;;;;;;5032610;28;20378;-87
2022/05/25 03:48:54;;;;;;;6.40;5.80;;;9.80;99.90;;;;;;5015688;28;20417;-87
2022/05/25 03:51:20;;;;;;;6.13;5.53;;;9.90;99.90;;;;;;5013962;28;20459;-86
2022/05/25 03:53:49;;;;;;;6.97;5.30;;;10.00;99.90;;;;;;5013866;28;20385;-86
2022/05/25 03:56:15;;;;;;;7.82;5.20;;;10.10;99.90;;;;;;5031430;28;20409;-86
2022/05/25 03:58:41;;;;;;;9.17;5.90;;;10.30;99.90;;;;;;5031633;28;20443;-86
2022/05/25 04:01:14;;;;;;;6.95;5.85;;;10.40;99.90;;;;;;5018422;28;20469;-86
2022/05/25 04:03:42;;;;;;;35.85;9.07;;;10.50;99.90;;;;;;5019253;28;20401;-86
2022/05/25 04:06:10;;;;;;;22.35;6.55;;;10.60;99.90;;;;;;5014358;28;20431;-86
2022/05/25 04:08:35;;;;;;;11.93;6.45;;;10.70;99.90;;;;;;5031185;28;20421;-86
2022/05/25 04:11:01;;;;;;;11.85;6.60;;;10.70;99.90;;;;;;5013430;28;20433;-86
2022/05/25 04:13:27;;;;;;;10.77;5.93;;;10.80;99.90;;;;;;5023792;28;20387;-86
2022/05/25 04:15:55;;;;;;;6.82;6.13;;;10.90;99.90;;;;;;5024366;28;20399;-86
2022/05/25 04:18:24;;;;;;;6.18;5.22;;;11.00;99.90;;;;;;5015985;28;20542;-87
2022/05/25 04:20:52;;;;;;;11.18;6.45;;;11.10;99.90;;;;;;5014319;28;20378;-86
2022/05/25 04:23:20;;;;;;;13.27;6.85;;;11.20;99.90;;;;;;5017657;28;20479;-87
2022/05/25 04:25:46;;;;;;;8.57;6.13;;;11.30;99.90;;;;;;5015375;28;20471;-86
2022/05/25 04:28:12;;;;;;;5.90;5.40;;;11.50;99.90;;;;;;5045628;28;20442;-86
2022/05/25 04:31:01;;;;;;;15.17;6.67;;;11.60;99.90;;;;;;5029423;28;20496;-87
2022/05/25 04:33:39;;;;;;;13.05;6.18;;;11.70;99.90;;;;;;5035548;28;20400;-87
2022/05/25 04:36:26;;;;;;;10.60;6.00;;;11.90;99.90;;;;;;5031845;28;20440;-87
2022/05/25 04:39:07;;;;;;;6.50;5.80;;;12.00;99.90;;;;;;5024001;28;20424;-87
2022/05/25 04:41:36;;;;;;;7.88;5.72;;;12.20;99.90;;;;;;5023522;28;20412;-86
2022/05/25 04:44:03;;;;;;;7.43;6.13;;;12.30;99.90;;;;;;5033534;28;20380;-86
2022/05/25 04:46:29;;;;;;;7.10;5.90;;;12.40;99.90;;;;;;5053132;28;20398;-87
2022/05/25 04:48:55;;;;;;;6.25;5.65;;;12.60;99.90;;;;;;5027010;28;20392;-87
2022/05/25 04:51:20;;;;;;;11.30;5.50;;;12.80;99.90;;;;;;5015937;28;20417;-86
2022/05/25 04:53:46;;;;;;;7.95;5.18;;;12.90;99.90;;;;;;5023336;28;20900;-87
2022/05/25 04:58:56;;;;;;;5.63;5.10;;;13.20;99.90;;;;;;5052923;28;20414;-86
2022/05/25 05:01:22;;;;;;;5.90;4.63;;;13.40;99.90;;;;;;5044176;28;20383;-86
2022/05/25 05:03:48;;;;;;;6.72;5.25;;;13.50;99.90;;;;;;5016670;28;20798;-86
2022/05/25 05:06:13;;;;;;;6.57;5.18;;;13.70;99.90;;;;;;5019848;28;20387;-86
2022/05/25 05:08:39;;;;;;;6.53;5.20;;;13.70;99.90;;;;;;5048695;28;20735;-87
2022/05/25 05:11:17;;;;;;;8.33;5.20;;;13.80;99.90;;;;;;5015995;28;20744;-86
2022/05/25 05:13:43;;;;;;;8.77;5.82;;;13.80;99.90;;;;;;5025197;28;20385;-87
2022/05/25 05:16:13;;;;;;;7.43;5.22;;;13.90;99.90;;;;;;5015452;28;20886;-87
2022/05/25 05:18:39;;;;;;;23.30;7.30;;;14.10;99.90;;;;;;5015860;28;20413;-86
2022/05/25 05:21:05;;;;;;;8.80;6.37;;;14.10;99.90;;;;;;5018648;28;20396;-86
2022/05/25 05:23:30;;;;;;;12.00;6.68;;;14.20;99.90;;;;;;5019952;28;20380;-87
2022/05/25 05:25:56;;;;;;;8.73;6.17;;;14.30;99.90;;;;;;5034618;28;20423;-87
2022/05/25 05:28:28;;;;;;;9.35;6.70;;;14.50;99.90;;;;;;5034593;28;20480;-87
2022/05/25 05:30:56;;;;;;;10.52;7.50;;;14.60;99.90;;;;;;5023834;28;20397;-87
2022/05/25 05:33:23;;;;;;;9.27;7.50;;;14.70;99.90;;;;;;5029514;28;20398;-87
2022/05/25 05:36:26;;;;;;;9.27;7.85;;;14.80;99.90;;;;;;5030937;28;20385;-86
2022/05/25 05:38:54;;;;;;;8.73;7.93;;;15.00;99.90;;;;;;5030801;28;20408;-86
2022/05/25 05:41:23;;;;;;;9.18;7.50;;;15.30;99.90;;;;;;5035830;28;20402;-87
2022/05/25 05:43:49;;;;;;;8.73;7.30;;;15.50;99.90;;;;;;5018125;28;20404;-88
2022/05/25 05:46:16;;;;;;;7.90;7.13;;;15.80;99.90;;;;;;5015014;28;20396;-88
2022/05/25 05:48:42;;;;;;;8.10;7.22;;;16.00;99.90;;;;;;5031243;28;20387;-88
2022/05/25 05:51:09;;;;;;;7.53;6.80;;;16.20;99.90;;;;;;5051846;28;20478;-89
2022/05/25 05:53:34;;;;;;;7.35;6.65;;;16.40;99.90;;;;;;5017523;28;20393;-87
2022/05/25 05:56:00;;;;;;;7.33;6.63;;;16.60;99.90;;;;;;5027713;28;20885;-88
2022/05/25 05:58:32;;;;;;;8.13;6.37;;;16.80;99.90;;;;;;5035912;28;20441;-87
2022/05/25 06:00:58;;;;;;;7.60;6.50;;;17.10;99.90;;;;;;5023374;28;20403;-88
2022/05/25 06:03:24;;;;;;;7.25;6.55;;;17.30;99.90;;;;;;5034844;28;20384;-89
2022/05/25 06:05:49;;;;;;;6.70;6.03;;;17.40;99.90;;;;;;5018298;28;20903;-89
2022/05/25 06:08:18;;;;;;;7.35;6.63;;;17.70;99.90;;;;;;5015937;28;20398;-89
2022/05/25 06:10:45;;;;;;;8.05;5.97;;;17.90;99.90;;;;;;5014999;28;20413;-88
2022/05/25 06:13:49;;;;;;;7.93;6.38;;;17.90;99.90;;;;;;5016056;28;20412;-86
2022/05/25 06:22:08;;;;;;;6.93;6.18;;;18.60;99.90;;;;;;4992704;28;20375;-87
2022/05/25 06:24:46;;;;;;;6.53;5.93;;;18.70;99.90;;;;;;4994405;28;20391;-88
2022/05/25 06:27:13;;;;;;;6.57;5.97;;;18.90;99.90;;;;;;5017378;28;20419;-90
2022/05/25 06:29:42;;;;;;;6.00;5.43;;;19.10;99.90;;;;;;5034536;28;20394;-88
2022/05/25 06:32:10;;;;;;;8.57;5.67;;;19.20;99.90;;;;;;5019069;28;20424;-89
2022/05/25 06:34:41;;;;;;;7.22;5.85;;;19.40;99.90;;;;;;5025968;28;20428;-90
2022/05/25 06:37:16;;;;;;;5.90;4.93;;;19.60;99.90;;;;;;5018068;28;20402;-89
2022/05/25 06:39:42;;;;;;;7.45;5.60;;;19.60;99.90;;;;;;5047202;28;20784;-90
2022/05/25 06:42:07;;;;;;;7.05;5.88;;;19.70;99.90;;;;;;5025175;28;20474;-90
2022/05/25 06:44:33;;;;;;;5.90;5.20;;;19.70;99.90;;;;;;5034856;28;20380;-89
2022/05/25 06:46:59;;;;;;;7.00;5.32;;;19.70;99.90;;;;;;5019259;28;20400;-90
2022/05/25 06:49:25;;;;;;;6.70;5.43;;;20.00;99.90;;;;;;5015694;28;20385;-91
2022/05/25 06:51:51;;;;;;;9.00;6.07;;;20.10;99.90;;;;;;5016260;28;20393;-91
2022/05/25 06:54:18;;;;;;;6.00;5.40;;;20.30;99.90;;;;;;5021817;28;20384;-91
2022/05/25 06:56:44;;;;;;;5.53;5.03;;;20.40;99.90;;;;;;5034650;28;20896;-89
2022/05/25 06:59:10;;;;;;;7.10;5.78;;;20.40;99.90;;;;;;5024343;28;20397;-89
2022/05/25 07:01:39;;;;;;;7.88;5.97;;;20.30;99.90;;;;;;5026365;28;20804;-89
2022/05/25 07:04:06;;;;;;;6.20;5.60;;;20.10;99.90;;;;;;5031157;28;20457;-91
2022/05/25 07:06:34;;;;;;;8.23;5.65;;;20.00;99.90;;;;;;5034950;28;20885;-91
2022/05/25 07:08:59;;;;;;;7.13;5.63;;;20.00;99.90;;;;;;5030414;28;20384;-91
2022/05/25 07:11:25;;;;;;;6.57;5.90;;;20.00;99.90;;;;;;5048948;28;20747;-89
2022/05/25 07:13:51;;;;;;;7.50;5.45;;;20.00;99.90;;;;;;5035025;28;20400;-88
2022/05/25 07:16:19;;;;;;;5.97;5.38;;;20.10;99.90;;;;;;5035720;28;20382;-90
2022/05/25 07:18:48;;;;;;;6.97;5.40;;;20.30;99.90;;;;;;5045460;28;20886;-88
2022/05/25 07:21:20;;;;;;;5.35;4.80;;;20.50;99.90;;;;;;5018676;28;20468;-88
2022/05/25 07:23:49;;;;;;;6.38;5.07;;;;;;;;;;5014679;28;20874;-87
2022/05/25 07:26:16;;;;;;;7.82;5.13;;;20.70;99.90;;;;;;5016087;28;20429;-89
2022/05/25 07:28:42;;;;;;;6.07;4.80;;;20.70;99.90;;;;;;5015272;28;20382;-86
2022/05/25 07:31:29;;;;;;;8.45;5.40;;;20.70;99.90;;;;;;5015065;28;20393;-88
2022/05/25 07:34:03;;;;;;;5.65;4.90;;;20.60;99.90;;;;;;5020936;28;20940;-89
2022/05/25 07:36:34;;;;;;;6.72;5.20;;;20.50;99.90;;;;;;5035273;28;20383;-89
2022/05/25 07:39:05;;;;;;;6.05;4.63;;;20.60;99.90;;;;;;5034368;28;20409;-87
2022/05/25 07:41:35;;;;;;;8.23;5.68;;;20.60;99.90;;;;;;5034880;28;20407;-87
2022/05/25 07:44:02;;;;;;;6.50;4.75;;;20.70;99.90;;;;;;5025662;28;20401;-90
2022/05/25 07:46:30;;;;;;;9.25;5.72;;;20.90;99.90;;;;;;5030913;28;20441;-88
2022/05/25 07:48:57;;;;;;;7.57;5.43;;;21.00;99.90;;;;;;5024470;28;20477;-89
2022/05/25 07:51:25;;;;;;;9.02;7.35;;;21.10;99.90;;;;;;5014576;28;20385;-90
2022/05/25 07:53:57;;;;;;;8.88;5.97;;;21.00;99.90;;;;;;5015102;28;20779;-90
2022/05/25 07:56:32;;;;;;;7.72;6.05;;;20.90;99.90;;;;;;5014162;28;20393;-90
2022/05/25 07:59:03;;;;;;;7.88;6.32;;;21.00;99.90;;;;;;5015411;28;20441;-88
2022/05/25 08:07:07;;;;;;;6.68;5.72;;;21.00;99.90;;;;;;5049035;28;20386;-89
2022/05/25 08:09:33;;;;;;;6.78;6.13;;;20.80;99.90;;;;;;5044837;28;20933;-89
2022/05/25 08:12:00;;;;;;;8.98;5.82;;;20.80;99.90;;;;;;5041651;28;20391;-88
2022/05/25 08:14:28;;;;;;;8.73;6.25;;;20.90;99.90;;;;;;5036521;28;20890;-88
2022/05/25 08:16:54;;;;;;;7.03;4.87;;;21.10;99.90;;;;;;5036538;28;20476;-88
2022/05/25 08:19:23;;;;;;;7.15;5.60;;;21.30;99.90;;;;;;5039143;28;20453;-86
2022/05/25 08:21:51;;;;;;;8.43;5.45;;;21.30;99.90;;;;;;5038735;28;20881;-90
2022/05/25 08:24:17;;;;;;;5.18;4.63;;;21.40;99.90;;;;;;5037886;28;20383;-89
2022/05/25 08:26:43;;;;;;;5.30;4.72;;;21.40;99.90;;;;;;5058207;28;20385;-91
2022/05/25 08:29:10;;;;;;;10.33;4.53;;;21.30;99.90;;;;;;5057684;28;20763;-89
2022/05/25 08:31:36;;;;;;;5.38;3.70;;;21.40;99.90;;;;;;5051858;28;20879;-89
2022/05/25 08:34:11;;;;;;;8.00;4.00;;;21.60;99.00;;;;;;5057709;28;20389;-89
2022/05/25 08:36:37;;;;;;;5.60;4.05;;;;;;;;;;5055326;28;20379;-90
2022/05/25 08:39:05;;;;;;;6.67;4.10;;;;;;;;;;5037154;28;20435;-90
2022/05/25 08:41:35;;;;;;;5.18;3.33;;;22.90;99.70;;;;;;5036220;28;20426;-91
2022/05/25 08:44:03;;;;;;;5.35;3.90;;;22.90;98.40;;;;;;5017373;28;20469;-88
2022/05/25 08:46:31;;;;;;;5.05;3.83;;;23.20;96.80;;;;;;5031367;28;20399;-88
2022/05/25 08:49:01;;;;;;;5.50;4.00;;;23.00;97.40;;;;;;5053509;28;20387;-89
2022/05/25 08:51:28;;;;;;;4.10;3.40;;;22.60;95.80;;;;;;5037546;28;20407;-86
2022/05/25 08:53:57;;;;;;;5.80;3.70;;;22.00;96.80;;;;;;5054289;28;20427;-88
2022/05/25 08:56:47;;;;;;;4.82;3.60;;;21.90;96.30;;;;;;5035484;28;20882;-90
2022/05/25 08:59:13;;;;;;;5.32;3.65;;;22.40;96.80;;;;;;5033883;28;20500;-92
2022/05/25 09:02:04;;;;;;;7.30;3.80;;;22.70;95.80;;;;;;5035355;28;20379;-89
2022/05/25 09:04:34;;;;;;;4.38;3.20;;;23.00;96.20;;;;;;5034687;28;20450;-90
2022/05/25 09:07:38;;;;;;;5.50;3.63;;;23.30;96.00;;;;;;5035936;28;20371;-88
2022/05/25 09:10:05;;;;;;;7.00;3.50;;;23.50;95.00;;;;;;4991493;28;20398;-88
2022/05/25 09:12:36;;;;;;;5.22;3.92;;;24.00;95.40;;;;;;5034678;28;20892;-86
2022/05/25 09:15:04;;;;;;;4.40;3.75;;;23.80;93.30;;;;;;5035916;28;20399;-87
2022/05/25 09:17:48;;;;;;;6.43;3.65;;;23.10;93.60;;;;;;5036163;28;20403;-88
2022/05/25 09:20:30;;;;;;;4.50;3.80;;;22.70;95.80;;;;;;5033959;28;20415;-87
2022/05/25 09:22:57;;;;;;;4.30;3.67;;;23.00;94.50;;;;;;5033698;28;20409;-90
2022/05/25 09:25:24;;;;;;;4.97;3.88;;;22.80;93.80;;;;;;5038730;28;20739;-91
2022/05/25 09:28:16;;;;;;;6.00;3.58;;;22.60;94.00;;;;;;5035301;28;20479;-87
2022/05/25 09:30:44;;;;;;;5.28;3.40;;;22.80;95.70;;;;;;5052636;28;20380;-87
2022/05/25 09:33:18;;;;;;;4.57;3.20;;;22.90;93.90;;;;;;5037231;28;20376;-88
2022/05/25 09:35:59;;;;;;;4.30;2.70;;;23.00;94.50;;;;;;5036926;28;20956;-87
2022/05/25 09:38:32;;;;;;;6.65;3.20;;;23.30;93.90;;;;;;5037991;28;20446;-91
2022/05/25 09:41:04;;;;;;;4.28;2.88;;;23.30;93.10;;;;;;5035767;28;20515;-89
2022/05/25 09:43:31;;;;;;;6.20;2.90;;;23.10;94.70;;;;;;5037556;28;20434;-88
2022/05/25 09:46:03;;;;;;;6.65;2.72;;;23.00;93.20;;;;;;5036806;28;20458;-91
2022/05/25 09:48:35;;;;;;;5.00;2.80;;;23.10;94.40;;;;;;5036575;28;20384;-87
2022/05/25 09:51:25;;;;;;;6.57;2.80;;;23.50;94.50;;;;;;5035974;28;20499;-89
2022/05/25 09:53:55;;;;;;;3.13;2.30;;;23.70;94.10;;;;;;5053897;28;20400;-91
2022/05/25 09:56:32;;;;;;;4.25;2.85;;;23.80;93.50;;;;;;5035783;28;20466;-87
2022/05/25 09:59:06;;;;;;;4.03;2.50;;;23.80;92.30;;;;;;5035791;28;20415;-88
2022/05/25 10:01:46;;;;;;;4.28;2.72;;;24.00;93.00;;;;;;5037079;28;20386;-88
2022/05/25 10:04:16;;;;;;;5.07;2.42;;;23.80;92.30;;;;;;5040910;28;20438;-88
2022/05/25 13:52:56;;;;;;;2.45;0.80;;;23.30;77.60;;;;;;5365455;23;21546;-89
2022/05/25 13:55:35;;;;;;;2.23;0.90;;;23.30;78.30;;;;;;5052401;28;20790;-88
2022/05/25 13:58:09;;;;;;;3.57;0.90;;;23.50;78.60;;;;;;5040054;28;21551;-89
2022/05/25 14:00:47;;;;;;;5.63;1.02;;;23.80;99.90;;;;;;5042204;28;20902;-87
2022/05/25 14:03:16;;;;;;;3.05;0.70;;;23.80;71.60;;;;;;5062265;28;20448;-89
2022/05/25 14:05:45;;;;;;;4.47;1.25;;;23.80;71.80;;;;;;5052376;28;20378;-87
2022/05/25 14:11:24;;;;;;;3.35;1.00;;;23.90;71.90;;;;;;5057108;28;20393;-87
2022/05/25 14:13:50;;;;;;;8.10;1.17;;;23.70;71.40;;;;;;5068478;28;20375;-89
2022/05/25 14:16:27;;;;;;;2.80;0.75;;;23.40;70.80;;;;;;5048718;28;20452;-89
2022/05/25 14:18:58;;;;;;;4.40;0.90;;;23.10;71.90;;;;;;5042910;28;20413;-86
2022/05/25 14:21:52;;;;;;;4.28;1.30;;;23.00;72.80;;;;;;5071254;28;20511;-88
2022/05/25 14:24:27;;;;;;;2.67;0.90;;;23.20;73.90;;;;;;5035241;28;20400;-87
2022/05/25 14:26:56;;;;;;;2.92;1.08;;;23.30;73.80;;;;;;5034611;28;20380;-89
2022/05/25 14:29:25;;;;;;;3.63;1.00;;;23.30;73.90;;;;;;5036476;28;20384;-89
2022/05/25 14:31:55;;;;;;;2.53;0.82;;;23.20;74.30;;;;;;5035250;28;20376;-91
2022/05/25 14:34:25;;;;;;;4.60;0.90;;;23.20;72.40;;;;;;5036133;28;20746;-88
2022/05/25 14:36:54;;;;;;;2.57;1.00;;;23.20;73.60;;;;;;5036161;28;20467;-90
2022/05/25 14:39:40;;;;;;;2.00;0.80;;;23.10;73.80;;;;;;5035224;28;20473;-87
2022/05/25 14:42:19;;;;;;;3.67;1.00;;;23.10;74.20;;;;;;5035603;28;20419;-88
2022/05/25 14:44:54;;;;;;;3.53;0.80;;;23.10;74.90;;;;;;5034451;28;20873;-88
2022/05/25 14:47:25;;;;;;;3.00;0.93;;;23.30;73.30;;;;;;5035314;28;20376;-90
2022/05/25 14:50:06;;;;;;;4.32;1.20;;;23.40;73.80;;;;;;5034125;28;20380;-86
2022/05/25 14:52:32;;;;;;;3.67;0.90;;;23.60;70.00;;;;;;5034503;28;20800;-85
2022/05/25 14:55:27;;;;;;;3.63;0.90;;;23.70;69.20;;;;;;5050526;28;20403;-88
2022/05/25 14:58:04;;;;;;;5.67;1.20;;;23.60;68.90;;;;;;5051134;28;20407;-86
2022/05/25 15:00:31;;;;;;;1.77;0.70;;;23.60;70.00;;;;;;5033800;28;20410;-90
2022/05/25 15:03:00;;;;;;;1.48;0.98;;;23.70;69.60;;;;;;5034024;28;20426;-86
2022/05/25 15:05:37;;;;;;;1.45;0.70;;;23.80;68.30;;;;;;5035234;28;20992;-90
2022/05/25 15:08:06;;;;;;;2.35;0.80;;;23.70;67.50;;;;;;5033890;28;20466;-90
2022/05/25 15:10:36;;;;;;;7.93;1.38;;;23.60;69.50;;;;;;5032422;28;20411;-85
2022/05/25 15:13:03;;;;;;;3.33;1.10;;;23.30;69.60;;;;;;5033585;28;20691;-89
2022/05/25 15:18:30;;;;;;;3.13;0.93;;;22.70;70.80;;;;;;5052328;28;20437;-91
2022/05/25 15:21:11;;;;;;;2.03;0.82;;;22.70;72.60;;;;;;5035712;28;20506;-86
2022/05/25 15:23:42;;;;;;;3.05;1.00;;;22.90;72.80;;;;;;5051346;28;20371;-88
2022/05/25 15:26:20;;;;;;;3.77;0.80;;;23.20;71.60;;;;;;5032748;28;20411;-91
2022/05/25 15:28:46;;;;;;;1.50;0.70;;;23.20;70.60;;;;;;5051036;28;20371;-89
2022/05/25 15:31:15;;;;;;;3.80;1.10;;;23.10;70.70;;;;;;5035330;28;20387;-89
2022/05/25 15:33:45;;;;;;;2.45;1.05;;;23.00;73.40;;;;;;5035470;28;20384;-91
2022/05/25 15:36:16;;;;;;;1.77;0.95;;;23.10;73.70;;;;;;5052223;28;20539;-87
2022/05/25 15:38:42;;;;;;;2.08;1.00;;;23.30;71.40;;;;;;5033124;28;20402;-87
2022/05/25 15:41:09;;;;;;;2.72;1.00;;;23.20;71.40;;;;;;5032887;28;20391;-82
2022/05/25 15:43:36;;;;;;;3.15;0.85;;;23.10;71.70;;;;;;5033064;28;20372;-89
2022/05/25 15:46:17;;;;;;;2.28;0.90;;;23.00;72.00;;;;;;5033877;28;20464;-91
2022/05/25 15:48:47;;;;;;;2.37;0.87;;;22.90;72.20;;;;;;5051066;28;20384;-90
2022/05/25 15:51:19;;;;;;;3.95;1.10;;;22.90;73.80;;;;;;5033661;28;20391;-91
2022/05/25 15:53:44;;;;;;;4.30;1.10;;;22.80;73.20;;;;;;5033383;28;20383;-90
2022/05/25 15:56:11;;;;;;;5.00;1.10;;;23.00;70.50;;;;;;5033030;28;20406;-89
2022/05/25 15:58:38;;;;;;;1.50;0.93;;;23.00;71.70;;;;;;5033602;28;20424;-89
2022/05/25 16:01:06;;;;;;;1.98;0.95;;;22.90;70.40;;;;;;5033016;28;20402;-86
2022/05/25 16:03:38;;;;;;;1.92;0.93;;;22.60;72.00;;;;;;5032905;28;20410;-89
2022/05/25 16:06:05;;;;;;;3.50;1.17;;;22.40;72.80;;;;;;5033765;28;20371;-89
2022/05/25 16:11:20;;;;;;;2.88;0.90;;;22.40;75.50;;;;;;5051499;28;20449;-91
2022/05/25 16:13:48;;;;;;;2.70;1.27;;;22.50;74.70;;;;;;5051470;28;20845;-90
2022/05/25 16:16:15;;;;;;;3.60;1.30;;;22.40;74.50;;;;;;5054480;28;20379;-86
2022/05/25 16:18:41;;;;;;;2.30;1.05;;;22.40;73.80;;;;;;5051319;28;20421;-88
2022/05/25 16:21:09;;;;;;;2.63;1.08;;;22.60;74.20;;;;;;5035114;28;20383;-89
2022/05/25 16:23:35;;;;;;;3.60;1.13;;;22.80;74.40;;;;;;5037516;28;20384;-86
2022/05/25 16:26:01;;;;;;;3.08;1.20;;;23.00;73.40;;;;;;5037323;28;20402;-90
2022/05/25 16:28:27;;;;;;;1.70;1.00;;;22.90;73.00;;;;;;5040218;28;20741;-89
2022/05/25 16:30:53;;;;;;;1.43;1.10;;;22.80;71.90;;;;;;5042823;28;20394;-84
2022/05/25 16:33:18;;;;;;;2.80;1.23;;;22.70;71.60;;;;;;5040539;28;20382;-89
2022/05/25 16:35:44;;;;;;;4.00;1.30;;;22.50;73.70;;;;;;5039203;28;20419;-90
2022/05/25 16:38:10;;;;;;;3.10;1.33;;;22.30;74.40;;;;;;5036856;28;20510;-87
2022/05/25 16:40:36;;;;;;;4.30;1.10;;;22.30;72.80;;;;;;5035569;28;20403;-89
2022/05/25 16:43:03;;;;;;;5.33;1.20;;;22.40;73.00;;;;;;5036001;28;20380;-88
2022/05/25 16:45:29;;;;;;;2.72;0.80;;;22.40;72.60;;;;;;5038504;28;20426;-86
2022/05/25 16:47:54;;;;;;;2.70;0.97;;;22.30;71.40;;;;;;5035957;28;20901;-87
2022/05/25 16:50:20;;;;;;;3.75;1.00;;;22.00;72.80;;;;;;5055153;28;20869;-86
2022/05/25 16:52:46;;;;;;;3.10;1.00;;;21.90;73.80;;;;;;5053965;28;20384;-90
2022/05/25 16:55:12;;;;;;;2.83;0.80;;;21.80;73.50;;;;;;5035873;28;20622;-86
2022/05/25 16:57:38;;;;;;;3.20;0.80;;;21.80;72.70;;;;;;5053988;28;20404;-89
2022/05/25 17:00:07;;;;;;;3.53;0.80;;;21.80;73.20;;;;;;5053821;28;20386;-90
2022/05/25 17:02:33;;;;;;;1.63;0.80;;;21.70;73.40;;;;;;5054476;28;20388;-90
2022/05/25 17:05:01;;;;;;;3.23;1.10;;;21.70;73.10;;;;;;5054187;28;20459;-83
2022/05/25 17:07:26;;;;;;;2.63;1.10;;;21.50;74.70;;;;;;5035617;28;20393;-88
2022/05/25 17:09:52;;;;;;;3.17;1.40;;;21.50;75.30;;;;;;5036551;28;20372;-89
2022/05/25 17:12:18;;;;;;;5.57;1.20;;;21.40;76.00;;;;;;5053655;28;20430;-87
2022/05/25 17:14:44;;;;;;;1.73;1.03;;;21.20;77.30;;;;;;5058764;28;20378;-86
2022/05/25 17:17:10;;;;;;;2.05;0.98;;;21.10;77.20;;;;;;5069197;28;20441;-88
2022/05/25 17:22:20;;;;;;;2.30;0.90;;;20.80;78.20;;;;;;5073399;28;20866;-87
2022/05/25 17:24:52;;;;;;;3.60;1.30;;;20.60;78.70;;;;;;5047745;28;20402;-87